Crocketts Bluff, Arkansas
Current Conditions -  °F | °C
As of 1:35 AM on Monday 22 Dec 2014 (Local Time) from KSGT Reporting Station
Overcast Overcast  
Wind Chill: 42°   Ceiling: 7500
Heat Index: 46°   Visibility: NA
Dew Point: 41°   Wind: 9mph
Humidity: 81%   Direction: 150°SSE
Pressure: 29.86"   Gusts: NA
Location:  34.44°N, 91.22°W
Report Text: KSGT 220735Z 15008KT OVC075 08/05 A2986 RMK AO1
Loading
Personal Weather Stations






























Interactive Weather Map New forecast layout! Learn more

10-Day Weather Forecast

Advertisements
Track Severe Weather on mobile